台中市, 台灣

2015年7月07日 12時55分 (GMT +0800)
ITAIWAND2 | | Change Station
CLOSE
Current Station
個人氣象站
Location: Dali, Taichung / Taiwan
海拔: 200 ft
附近的氣象站

海拔 200 ft 24.11 °N, 120.68 °E | Updated 5 minutes ago

Mostly Cloudy
多雲
92.9 °F
感覺像 105 °F
2.0
風 變化 風 來自
Gusts 2.0 英里每小時

今日
高 -- | 低 -- °F
--% 降水機率
昨天
高 -- | 低 -- °F
Precip. -- 英寸
5:14 AM 6:49 PM
虧凸月, 69% visible
氣壓 29.50 英寸
能見度 4.3 英里
多雲 少數 600 ft
多雲時晴 1200 ft
多雲 5000 ft
高溫指數 105 °F
露點 75 °F
濕度 57%
降雨量 0.00 英寸
積雪深度 不適用。
紫外線 9 / 12
花粉 不適用。
空氣質素 不適用。
Flu Activity 不適用。
METAR RCMQ 070430Z 34013KT 7000 FEW006 SCT012 BKN050 31/26 Q0999 NOSIG RMK A2952

More Conditions Fewer Conditions

氣壓 29.50 英寸
能見度 4.3 英里
多雲 少數 600 ft
多雲時晴 1200 ft
多雲 5000 ft
高溫指數 105 °F
露點 75 °F
濕度 57%
降雨量 0.00 英寸
積雪深度 不適用。
紫外線 9 / 12
花粉 不適用。
空氣質素 不適用。
Flu Activity 不適用。
METAR RCMQ 070430Z 34013KT 7000 FEW006 SCT012 BKN050 31/26 Q0999 NOSIG RMK A2952

More Conditions Fewer Conditions

10-Day Weather Forecast

×

Almanac

天文

Jul. 07, 2015 昇起 降落
實際時間
民用曙暮光
航海曙暮光
天文學微明
月亮
可見光的長度
白晝時間
Tomorrow will be .
, % of the Moon is Illuminated

今天之最

國家高溫 國家低溫

Community

WunderPhotos

Upload Photos

1,835,728 照片已上傳!

WunderBlogs® & News

Nearby

空氣質素

  空氣質素 空氣質素指數 污染物
Not available.

積雪量

Station 深度 海拔

地震活動

城市 距離 時間和日期
顯示的最小幅度是2.5。

沿海水溫

地點 溫度

Stations

附近的氣象站

氣象站位置 溫度 風寒指數 露點 濕度 Precip. 海拔 最近更新時間 類型